createdAt,value
2022-12-27T00:01:46.993Z,98770.63
2022-12-27T00:04:48.885Z,98762.75
2022-12-27T00:07:50.543Z,98767.22
2022-12-27T00:10:53.546Z,98767.22
2022-12-27T00:13:55.311Z,98765.50
2022-12-27T00:16:57.076Z,98763.72
2022-12-27T00:19:59.248Z,98766.31
2022-12-27T00:23:01.117Z,98758.47
2022-12-27T00:26:05.123Z,98754.91
2022-12-27T00:29:06.823Z,98756.66
2022-12-27T00:32:08.303Z,98737.34
2022-12-27T00:35:10.404Z,98747.84
2022-12-27T00:38:11.935Z,98741.69
2022-12-27T00:41:15.256Z,98743.34
2022-12-27T00:44:16.828Z,98762.63
2022-12-27T00:47:18.383Z,98767.00
2022-12-27T00:50:20.104Z,98774.88
2022-12-27T00:53:21.693Z,98771.34
2022-12-27T00:56:25.712Z,98784.50
2022-12-27T00:59:27.318Z,98785.50
2022-12-27T01:02:28.875Z,98790.94
2022-12-27T01:05:30.902Z,98791.00
2022-12-27T01:08:32.593Z,98795.41
2022-12-27T01:11:35.883Z,98783.09
2022-12-27T01:14:37.375Z,98783.09
2022-12-27T01:17:38.949Z,98798.84
2022-12-27T01:20:40.645Z,98807.53
2022-12-27T01:23:43.226Z,98812.81
2022-12-27T01:26:46.312Z,98817.19
2022-12-27T01:29:47.913Z,98805.69
2022-12-27T01:32:49.532Z,98792.47
2022-12-27T01:35:51.261Z,98812.72
2022-12-27T01:38:52.835Z,98810.06
2022-12-27T01:42:14.183Z,98806.44
2022-12-27T01:45:16.044Z,98816.09
2022-12-27T01:48:19.348Z,98831.91
2022-12-27T01:51:21.030Z,98822.25
2022-12-27T01:54:22.878Z,98821.31
2022-12-27T01:57:25.879Z,98825.69
2022-12-27T02:00:27.500Z,98824.81
2022-12-27T02:03:30.778Z,98827.44
2022-12-27T02:06:33.068Z,98828.28
2022-12-27T02:09:38.432Z,98829.19
2022-12-27T02:12:41.447Z,98817.78
2022-12-27T02:15:43.109Z,98828.31
2022-12-27T02:18:45.140Z,98827.47
2022-12-27T02:21:56.223Z,98832.78
2022-12-27T02:25:10.562Z,98824.00
2022-12-27T02:28:20.101Z,98824.00
2022-12-27T02:31:29.566Z,98836.28
2022-12-27T02:34:34.699Z,98841.56
2022-12-27T02:37:39.066Z,98838.91
2022-12-27T02:41:00.169Z,98842.44
2022-12-27T02:44:20.179Z,98844.19
2022-12-27T02:47:43.171Z,98849.41
2022-12-27T02:51:11.308Z,98852.94
2022-12-27T02:54:21.604Z,98835.38
2022-12-27T02:57:29.771Z,98846.81
2022-12-27T03:00:54.149Z,98844.19
2022-12-27T03:04:05.444Z,98844.19
2022-12-27T03:07:17.165Z,98847.69
2022-12-27T03:10:44.945Z,98850.22
2022-12-27T03:14:07.595Z,98856.38
2022-12-27T03:17:11.582Z,98841.44
2022-12-27T03:20:35.038Z,98858.06
2022-12-27T03:23:57.418Z,98852.78
2022-12-27T03:27:00.531Z,98873.88
2022-12-27T03:30:23.032Z,98853.63
2022-12-27T03:33:26.009Z,98865.88
2022-12-27T03:36:47.435Z,98867.69
2022-12-27T03:39:52.919Z,98870.28
2022-12-27T03:43:11.136Z,98866.69
2022-12-27T03:46:35.497Z,98865.78
2022-12-27T03:49:41.293Z,98869.31
2022-12-27T03:52:47.001Z,98871.94
2022-12-27T03:55:49.072Z,98863.19
2022-12-27T03:58:51.591Z,98880.63
2022-12-27T04:01:53.331Z,98868.34
2022-12-27T04:04:55.148Z,98878.84
2022-12-27T04:08:16.322Z,98880.63
2022-12-27T04:11:36.427Z,98873.63
2022-12-27T04:14:56.867Z,98878.84
2022-12-27T04:18:17.245Z,98882.34
2022-12-27T04:21:37.558Z,98875.31
2022-12-27T04:24:59.003Z,98873.53
2022-12-27T04:28:19.181Z,98884.09
2022-12-27T04:31:39.428Z,98886.69
2022-12-27T04:34:44.188Z,98884.03
2022-12-27T04:37:45.811Z,98876.94
2022-12-27T04:41:06.969Z,98866.41
2022-12-27T04:44:26.943Z,98862.88
2022-12-27T04:47:47.563Z,98872.50
2022-12-27T04:51:07.529Z,98869.88
2022-12-27T04:54:33.571Z,98887.44
2022-12-27T04:57:36.529Z,98876.00
2022-12-27T05:00:57.382Z,98873.38
2022-12-27T05:03:58.968Z,98873.34
2022-12-27T05:07:20.561Z,98880.34
2022-12-27T05:10:40.836Z,98888.25
2022-12-27T05:14:16.657Z,98887.34
2022-12-27T05:17:18.627Z,98885.59
2022-12-27T05:20:20.494Z,98884.69
2022-12-27T05:23:40.821Z,98889.97
2022-12-27T05:26:42.470Z,98905.75
2022-12-27T05:29:45.576Z,98883.81
2022-12-27T05:32:47.099Z,98883.81
2022-12-27T05:35:48.639Z,98891.69
2022-12-27T05:38:50.324Z,98905.78
2022-12-27T05:41:52.213Z,98904.91
2022-12-27T05:44:55.204Z,98907.53
2022-12-27T05:51:28.946Z,98906.66
2022-12-27T05:54:30.505Z,98915.44
2022-12-27T05:57:32.275Z,98911.03
2022-12-27T06:00:35.719Z,98911.06
2022-12-27T06:03:37.803Z,98912.84
2022-12-27T06:06:40.068Z,98913.72
2022-12-27T06:09:41.766Z,98925.16
2022-12-27T06:12:43.261Z,98929.53
2022-12-27T06:15:46.187Z,98932.19
2022-12-27T06:18:47.737Z,98931.28
2022-12-27T06:21:49.425Z,98939.19
2022-12-27T06:24:51.051Z,98947.13
2022-12-27T06:27:52.776Z,98941.81
2022-12-27T06:30:57.974Z,98937.44
2022-12-27T06:33:59.459Z,98956.75
2022-12-27T06:37:01.058Z,98950.63
2022-12-27T06:40:02.589Z,98962.03
2022-12-27T06:43:04.203Z,98968.19
2022-12-27T06:46:12.396Z,98961.19
2022-12-27T06:49:20.015Z,98965.56
2022-12-27T06:52:23.234Z,98976.09
2022-12-27T06:55:24.859Z,98982.22
2022-12-27T06:58:26.353Z,98998.91
2022-12-27T07:01:29.358Z,98981.31
2022-12-27T07:04:30.904Z,98996.22
2022-12-27T07:07:32.556Z,98985.66
2022-12-27T07:10:35.737Z,98983.94
2022-12-27T07:13:38.936Z,98979.53
2022-12-27T07:16:41.935Z,98987.44
2022-12-27T07:19:43.481Z,98997.09
2022-12-27T07:22:45.061Z,98992.72
2022-12-27T07:25:46.606Z,98996.22
2022-12-27T07:28:49.873Z,98999.75
2022-12-27T07:31:52.887Z,99019.03
2022-12-27T07:34:54.632Z,99015.50
2022-12-27T07:37:56.211Z,99023.41
2022-12-27T07:40:58.547Z,99024.25
2022-12-27T07:44:00.070Z,99026.91
2022-12-27T07:47:02.999Z,99042.72
2022-12-27T07:50:04.830Z,99035.66
2022-12-27T07:53:06.330Z,99053.22
2022-12-27T07:56:12.635Z,99044.44
2022-12-27T07:59:14.529Z,99054.97
2022-12-27T08:02:17.729Z,99069.03
2022-12-27T08:05:24.339Z,99075.16
2022-12-27T08:08:36.341Z,99078.66
2022-12-27T08:11:37.847Z,99083.09
2022-12-27T08:14:39.417Z,99081.31
2022-12-27T08:17:43.686Z,99092.75
2022-12-27T08:20:45.199Z,99084.81
2022-12-27T08:23:46.712Z,99083.06
2022-12-27T08:26:48.574Z,99089.22
2022-12-27T08:29:50.351Z,99087.47
2022-12-27T08:32:53.239Z,99082.19
2022-12-27T08:35:57.084Z,99080.44
2022-12-27T08:38:58.839Z,99087.47
2022-12-27T08:42:00.394Z,99089.19
2022-12-27T08:45:02.012Z,99093.59
2022-12-27T08:48:05.345Z,99090.06
2022-12-27T08:51:12.581Z,99091.81
2022-12-27T08:54:16.318Z,99088.28
2022-12-27T08:57:17.951Z,99098.84
2022-12-27T09:00:19.627Z,99103.25
2022-12-27T09:03:22.616Z,99107.63
2022-12-27T09:06:24.815Z,99107.66
2022-12-27T09:09:26.371Z,99111.16
2022-12-27T09:12:28.052Z,99113.75
2022-12-27T09:15:29.801Z,99116.41
2022-12-27T09:18:32.782Z,99126.06
2022-12-27T09:21:34.444Z,99129.59
2022-12-27T09:24:35.995Z,99134.84
2022-12-27T09:27:38.188Z,99133.94
2022-12-27T09:30:41.117Z,99134.84
2022-12-27T09:33:44.070Z,99145.38
2022-12-27T09:36:45.638Z,99153.31
2022-12-27T09:39:47.246Z,99150.66
2022-12-27T09:43:09.459Z,99155.06
2022-12-27T09:46:18.418Z,99158.56
2022-12-27T09:49:25.412Z,99163.78
2022-12-27T09:52:28.080Z,99161.13
2022-12-27T09:55:37.142Z,99162.00
2022-12-27T09:58:43.034Z,99162.88
2022-12-27T10:01:44.871Z,99172.53
2022-12-27T10:05:18.710Z,99179.59
2022-12-27T10:08:17.676Z,99162.00
2022-12-27T10:11:36.993Z,99164.66
2022-12-27T10:14:47.293Z,99171.66
2022-12-27T10:17:54.578Z,99169.91
2022-12-27T10:21:02.059Z,99170.78
2022-12-27T10:24:11.965Z,99164.56
2022-12-27T10:27:14.673Z,99160.16
2022-12-27T10:30:17.714Z,99168.09
2022-12-27T10:33:20.470Z,99172.44
2022-12-27T10:36:25.852Z,99168.91
2022-12-27T10:39:29.035Z,99168.03
2022-12-27T10:42:34.028Z,99177.66
2022-12-27T10:45:39.122Z,99172.34
2022-12-27T10:49:18.908Z,99169.69
2022-12-27T10:52:09.112Z,99171.47
2022-12-27T10:55:30.524Z,99181.13
2022-12-27T10:58:37.345Z,99182.00
2022-12-27T11:01:39.310Z,99179.34
2022-12-27T11:04:55.025Z,99174.09
2022-12-27T11:08:01.291Z,99179.34
2022-12-27T11:11:11.933Z,99172.25
2022-12-27T11:14:16.837Z,99174.91
2022-12-27T11:17:19.173Z,99176.66
2022-12-27T11:20:22.417Z,99180.13
2022-12-27T11:23:29.596Z,99170.44
2022-12-27T11:26:33.732Z,99173.06
2022-12-27T11:29:35.566Z,99181.00
2022-12-27T11:32:37.440Z,99178.38
2022-12-27T11:35:46.394Z,99185.41
2022-12-27T11:38:49.885Z,99184.50
2022-12-27T11:41:54.931Z,99194.16
2022-12-27T11:45:04.245Z,99184.50
2022-12-27T11:48:11.128Z,99188.03
2022-12-27T11:51:30.550Z,99184.50
2022-12-27T11:54:39.279Z,99193.31
2022-12-27T11:57:54.172Z,99193.31
2022-12-27T12:01:03.663Z,99190.66
2022-12-27T12:04:13.811Z,99181.78
2022-12-27T12:07:20.296Z,99186.19
2022-12-27T12:10:30.106Z,99178.22
2022-12-27T12:13:44.288Z,99183.50
2022-12-27T12:17:04.949Z,99176.41
2022-12-27T12:20:16.059Z,99180.75
2022-12-27T12:23:27.823Z,99187.75
2022-12-27T12:26:35.189Z,99178.84
2022-12-27T12:29:47.384Z,99176.16
2022-12-27T12:32:59.499Z,99180.50
2022-12-27T12:36:15.024Z,99194.66
2022-12-27T12:39:22.471Z,99192.03
2022-12-27T12:42:30.441Z,99176.19
2022-12-27T12:45:38.742Z,99175.31
2022-12-27T12:48:54.651Z,99173.56
2022-12-27T12:52:03.396Z,99172.66
2022-12-27T12:55:17.311Z,99178.03
2022-12-27T12:58:28.818Z,99178.91
2022-12-27T13:01:39.646Z,99170.09
2022-12-27T13:04:55.442Z,99171.00
2022-12-27T13:08:01.957Z,99168.31
2022-12-27T13:11:22.450Z,99167.41
2022-12-27T13:14:32.753Z,99170.03
2022-12-27T13:17:39.169Z,99164.78
2022-12-27T13:20:50.204Z,99168.28
2022-12-27T13:23:59.033Z,99170.91
2022-12-27T13:27:05.532Z,99157.69
2022-12-27T13:30:16.628Z,99152.34
2022-12-27T13:33:26.615Z,99158.50
2022-12-27T13:36:32.484Z,99153.19
2022-12-27T13:39:39.155Z,99139.03
2022-12-27T13:42:47.083Z,99140.75
2022-12-27T13:45:57.919Z,99139.81
2022-12-27T13:49:08.530Z,99130.94
2022-12-27T13:52:15.206Z,99129.19
2022-12-27T13:55:28.090Z,99127.47
2022-12-27T13:58:48.494Z,99134.50
2022-12-27T14:02:00.971Z,99131.81
2022-12-27T14:05:32.884Z,99130.94
2022-12-27T14:08:55.021Z,99132.66
2022-12-27T14:12:05.385Z,99124.66
2022-12-27T14:15:08.172Z,99128.19
2022-12-27T14:18:20.915Z,99119.34
2022-12-27T14:21:35.260Z,99115.81
2022-12-27T14:24:53.675Z,99115.75
2022-12-27T14:28:12.194Z,99121.88
2022-12-27T14:31:41.396Z,99105.13
2022-12-27T14:35:09.242Z,99102.47
2022-12-27T14:38:24.364Z,99100.66
2022-12-27T14:41:44.740Z,99103.38
2022-12-27T14:45:05.138Z,99104.25
2022-12-27T14:48:24.586Z,99098.09
2022-12-27T14:55:13.766Z,99103.41
2022-12-27T14:58:36.555Z,99096.38
2022-12-27T15:01:48.546Z,99092.84
2022-12-27T15:04:58.463Z,99100.75
2022-12-27T15:08:07.123Z,99100.84
2022-12-27T15:11:21.750Z,99103.44
2022-12-27T15:14:41.446Z,99099.03
2022-12-27T15:17:50.800Z,99098.19
2022-12-27T15:21:00.339Z,99108.78
2022-12-27T15:24:07.259Z,99108.81
2022-12-27T15:27:19.269Z,99099.09
2022-12-27T15:30:24.575Z,99089.44
2022-12-27T15:33:31.504Z,99085.06
2022-12-27T15:36:37.360Z,99090.34
2022-12-27T15:39:47.362Z,99093.03
2022-12-27T15:42:54.103Z,99086.03
2022-12-27T15:46:04.795Z,99093.06
2022-12-27T15:49:15.054Z,99093.94
2022-12-27T15:52:22.104Z,99088.66
2022-12-27T15:55:34.604Z,99093.94
2022-12-27T15:58:36.557Z,99091.22
2022-12-27T16:01:39.228Z,99092.03
2022-12-27T16:04:46.438Z,99086.72
2022-12-27T16:07:50.148Z,99087.53
2022-12-27T16:10:53.812Z,99086.66
2022-12-27T16:14:15.370Z,99082.28
2022-12-27T16:17:27.815Z,99078.78
2022-12-27T16:20:30.064Z,99077.06
2022-12-27T16:23:33.583Z,99074.38
2022-12-27T16:26:45.617Z,99067.34
2022-12-27T16:29:47.308Z,99073.47
2022-12-27T16:32:49.194Z,99069.91
2022-12-27T16:36:09.797Z,99077.75
2022-12-27T16:39:32.524Z,99077.75
2022-12-27T16:42:55.963Z,99066.28
2022-12-27T16:46:05.571Z,99069.81
2022-12-27T16:49:28.188Z,99064.53
2022-12-27T16:52:44.440Z,99050.47
2022-12-27T16:55:55.483Z,99048.69
2022-12-27T16:58:58.415Z,99051.31
2022-12-27T17:02:00.069Z,99047.78
2022-12-27T17:05:01.997Z,99044.16
2022-12-27T17:08:13.839Z,99045.91
2022-12-27T17:11:25.525Z,99056.41
2022-12-27T17:14:33.699Z,99044.91
2022-12-27T17:17:36.128Z,99042.22
2022-12-27T17:20:39.046Z,99052.75
2022-12-27T17:23:41.603Z,99062.41
2022-12-27T17:27:04.600Z,99058.84
2022-12-27T17:30:12.571Z,99053.53
2022-12-27T17:33:20.576Z,99052.63
2022-12-27T17:36:28.267Z,99049.06
2022-12-27T17:39:52.997Z,99049.09
2022-12-27T17:43:18.911Z,99043.84
2022-12-27T17:46:28.124Z,99042.94
2022-12-27T17:49:31.198Z,99041.97
2022-12-27T17:52:51.574Z,99035.75
2022-12-27T17:56:18.948Z,99024.31
2022-12-27T17:59:24.541Z,99026.00
2022-12-27T18:02:29.672Z,99024.25
2022-12-27T18:05:33.718Z,99017.22
2022-12-27T18:08:36.191Z,99022.53
2022-12-27T18:11:41.162Z,99019.81
2022-12-27T18:14:43.389Z,99015.41
2022-12-27T18:17:47.581Z,99023.28
2022-12-27T18:20:54.163Z,99006.53
2022-12-27T18:23:56.494Z,99014.47
2022-12-27T18:27:03.173Z,99004.66
2022-12-27T18:30:05.369Z,99004.69
2022-12-27T18:33:10.729Z,99000.22
2022-12-27T18:36:13.852Z,99002.88
2022-12-27T18:39:23.644Z,99000.19
2022-12-27T18:42:29.772Z,99000.16
2022-12-27T18:45:33.340Z,98993.91
2022-12-27T18:48:36.336Z,98990.25
2022-12-27T18:51:38.641Z,98985.91
2022-12-27T18:54:43.057Z,98973.59
2022-12-27T18:57:45.042Z,98971.03
2022-12-27T19:00:47.755Z,98964.94
2022-12-27T19:04:05.283Z,98964.19
2022-12-27T19:07:09.535Z,98963.41
2022-12-27T19:10:15.974Z,98964.34
2022-12-27T19:13:20.935Z,98962.59
2022-12-27T19:16:24.486Z,98954.75
2022-12-27T19:19:29.341Z,98965.41
2022-12-27T19:22:34.210Z,98953.97
2022-12-27T19:25:36.448Z,98951.38
2022-12-27T19:28:38.034Z,98954.91
2022-12-27T19:31:41.816Z,98949.66
2022-12-27T19:34:45.949Z,98950.50
2022-12-27T19:37:47.461Z,98946.97
2022-12-27T19:40:50.884Z,98946.09
2022-12-27T19:43:53.186Z,98944.28
2022-12-27T19:46:54.790Z,98939.84
2022-12-27T19:49:57.774Z,98938.19
2022-12-27T19:52:59.800Z,98929.47
2022-12-27T19:56:02.964Z,98925.09
2022-12-27T19:59:04.681Z,98930.50
2022-12-27T20:02:06.449Z,98928.81
2022-12-27T20:05:10.255Z,98925.41
2022-12-27T20:08:18.253Z,98933.41
2022-12-27T20:11:21.259Z,98932.66
2022-12-27T20:14:23.080Z,98934.47
2022-12-27T20:17:24.634Z,98931.94
2022-12-27T20:20:27.708Z,98919.72
2022-12-27T20:23:29.290Z,98917.09
2022-12-27T20:26:30.937Z,98923.31
2022-12-27T20:29:32.602Z,98921.63
2022-12-27T20:32:34.295Z,98927.06
2022-12-27T20:35:37.235Z,98930.66
2022-12-27T20:38:39.273Z,98922.88
2022-12-27T20:41:40.872Z,98915.03
2022-12-27T20:44:42.738Z,98921.25
2022-12-27T20:47:44.864Z,98894.06
2022-12-27T20:50:47.880Z,98899.47
2022-12-27T20:53:54.593Z,98903.03
2022-12-27T20:56:56.859Z,98897.75
2022-12-27T20:59:58.371Z,98889.91
2022-12-27T21:03:00.233Z,98896.09
2022-12-27T21:06:06.839Z,98886.50
2022-12-27T21:09:08.775Z,98892.75
2022-12-27T21:12:10.863Z,98898.03
2022-12-27T21:15:12.881Z,98889.28
2022-12-27T21:18:15.356Z,98891.97
2022-12-27T21:21:20.077Z,98882.34
2022-12-27T21:24:24.035Z,98877.09
2022-12-27T21:27:25.690Z,98884.09
2022-12-27T21:30:27.353Z,98884.09
2022-12-27T21:33:29.354Z,98880.66
2022-12-27T21:36:35.090Z,98875.44
2022-12-27T21:39:38.096Z,98879.00
2022-12-27T21:42:39.691Z,98875.53
2022-12-27T21:45:41.259Z,98869.44
2022-12-27T21:48:43.502Z,98873.03
2022-12-27T21:51:46.537Z,98873.94
2022-12-27T21:54:52.097Z,98875.75
2022-12-27T21:57:53.692Z,98870.50
2022-12-27T22:01:03.642Z,98862.63
2022-12-27T22:04:08.127Z,98867.97
2022-12-27T22:07:11.360Z,98861.84
2022-12-27T22:10:12.946Z,98847.81
2022-12-27T22:13:14.640Z,98844.34
2022-12-27T22:16:18.604Z,98846.13
2022-12-27T22:19:20.219Z,98843.53
2022-12-27T22:22:23.076Z,98838.25
2022-12-27T22:25:24.649Z,98832.91
2022-12-27T22:28:26.245Z,98827.63
2022-12-27T22:31:30.360Z,98825.00
2022-12-27T22:34:32.219Z,98822.38
2022-12-27T22:37:35.285Z,98828.56
2022-12-27T22:40:46.517Z,98818.94
2022-12-27T22:43:49.831Z,98818.94
2022-12-27T22:47:24.531Z,98824.25
2022-12-27T22:50:12.909Z,98812.00
2022-12-27T22:53:15.838Z,98807.59
2022-12-27T22:56:18.363Z,98805.88
2022-12-27T22:59:19.923Z,98802.38
2022-12-27T23:02:21.582Z,98797.97
2022-12-27T23:05:24.508Z,98795.34
2022-12-27T23:08:29.114Z,98790.06
2022-12-27T23:11:31.498Z,98790.94
2022-12-27T23:14:33.010Z,98776.00
2022-12-27T23:17:34.520Z,98787.41
2022-12-27T23:20:36.034Z,98770.72
2022-12-27T23:23:38.899Z,98762.84
2022-12-27T23:26:41.136Z,98752.31
2022-12-27T23:29:42.714Z,98752.31
2022-12-27T23:32:44.246Z,98738.25
2022-12-27T23:35:45.768Z,98732.09
2022-12-27T23:38:49.172Z,98733.88
2022-12-27T23:41:50.692Z,98720.75
2022-12-27T23:44:52.630Z,98712.00
2022-12-27T23:47:54.253Z,98704.94
2022-12-27T23:50:55.850Z,98697.94
2022-12-27T23:53:59.406Z,98686.50
2022-12-27T23:57:19.988Z,98675.09
